createdAt,value
2022-12-31T00:00:32.786Z,6.38
2022-12-31T00:03:00.069Z,6.20
2022-12-31T00:05:27.058Z,6.66
2022-12-31T00:07:53.946Z,6.58
2022-12-31T00:10:21.325Z,6.86
2022-12-31T00:12:48.214Z,6.56
2022-12-31T00:15:15.169Z,6.48
2022-12-31T00:17:42.112Z,6.53
2022-12-31T00:20:09.275Z,6.75
2022-12-31T00:22:36.267Z,6.38
2022-12-31T00:25:04.413Z,6.14
2022-12-31T00:27:32.399Z,6.01
2022-12-31T00:30:04.267Z,6.27
2022-12-31T00:32:32.234Z,6.13
2022-12-31T00:34:59.201Z,5.93
2022-12-31T00:37:26.065Z,5.86
2022-12-31T00:39:53.023Z,5.92
2022-12-31T00:42:19.930Z,5.85
2022-12-31T00:44:46.905Z,5.91
2022-12-31T00:47:13.959Z,6.22
2022-12-31T00:49:40.872Z,6.24
2022-12-31T00:52:07.824Z,6.46
2022-12-31T00:54:34.847Z,6.56
2022-12-31T00:57:01.730Z,6.43
2022-12-31T00:59:28.708Z,6.23
2022-12-31T01:01:55.737Z,6.16
2022-12-31T01:04:22.675Z,6.25
2022-12-31T01:06:49.637Z,6.47
2022-12-31T01:09:17.768Z,6.31
2022-12-31T01:11:45.290Z,6.24
2022-12-31T01:14:15.537Z,6.26
2022-12-31T01:16:45.485Z,6.13
2022-12-31T01:19:15.975Z,5.98
2022-12-31T01:21:44.609Z,5.96
2022-12-31T01:24:12.562Z,6.26
2022-12-31T01:26:40.132Z,6.35
2022-12-31T01:29:08.452Z,6.11
2022-12-31T01:31:36.638Z,5.53
2022-12-31T01:34:04.045Z,5.54
2022-12-31T01:36:32.522Z,5.75
2022-12-31T01:39:01.529Z,5.80
2022-12-31T01:41:32.896Z,5.82
2022-12-31T01:44:23.739Z,5.90
2022-12-31T01:46:57.477Z,5.97
2022-12-31T01:49:31.344Z,6.11
2022-12-31T01:52:07.317Z,6.16
2022-12-31T01:54:39.857Z,6.04
2022-12-31T01:57:09.709Z,5.95
2022-12-31T01:59:36.861Z,6.09
2022-12-31T02:02:04.692Z,6.19
2022-12-31T02:04:31.986Z,6.02
2022-12-31T02:07:02.851Z,6.04
2022-12-31T02:09:31.587Z,6.03
2022-12-31T02:11:58.611Z,6.09
2022-12-31T02:14:34.797Z,6.03
2022-12-31T02:17:30.886Z,5.89
2022-12-31T02:20:15.974Z,6.12
2022-12-31T02:23:00.758Z,6.07
2022-12-31T02:26:05.013Z,6.23
2022-12-31T02:28:43.632Z,6.24
2022-12-31T02:31:19.511Z,6.08
2022-12-31T02:34:13.803Z,5.94
2022-12-31T02:36:44.483Z,5.85
2022-12-31T02:39:13.499Z,5.77
2022-12-31T02:41:53.946Z,5.78
2022-12-31T02:44:33.799Z,5.83
2022-12-31T02:47:09.241Z,5.77
2022-12-31T02:49:54.616Z,5.77
2022-12-31T02:52:27.168Z,5.83
2022-12-31T02:55:26.839Z,5.51
2022-12-31T02:58:13.120Z,5.73
2022-12-31T03:01:05.742Z,5.93
2022-12-31T03:03:33.344Z,6.01
2022-12-31T03:06:03.353Z,5.89
2022-12-31T03:08:30.585Z,5.71
2022-12-31T03:10:57.865Z,5.92
2022-12-31T03:13:25.093Z,6.28
2022-12-31T03:15:51.976Z,6.29
2022-12-31T03:18:39.588Z,6.21
2022-12-31T03:21:31.088Z,5.91
2022-12-31T03:24:16.668Z,5.23
2022-12-31T03:26:43.623Z,5.36
2022-12-31T03:29:10.613Z,5.65
2022-12-31T03:31:37.734Z,5.93
2022-12-31T03:34:04.780Z,5.82
2022-12-31T03:36:31.693Z,5.16
2022-12-31T03:38:58.596Z,5.00
2022-12-31T03:41:25.501Z,4.95
2022-12-31T03:43:52.532Z,5.28
2022-12-31T03:46:19.481Z,5.66
2022-12-31T03:48:46.530Z,6.46
2022-12-31T03:51:13.596Z,6.76
2022-12-31T03:53:40.466Z,6.73
2022-12-31T03:56:07.570Z,6.35
2022-12-31T03:58:34.477Z,6.22
2022-12-31T04:01:01.474Z,6.54
2022-12-31T04:03:28.857Z,7.30
2022-12-31T04:05:56.216Z,7.17
2022-12-31T04:08:23.791Z,7.00
2022-12-31T04:10:50.805Z,6.96
2022-12-31T04:13:17.651Z,7.11
2022-12-31T04:15:44.610Z,7.31
2022-12-31T04:18:11.798Z,7.73
2022-12-31T04:20:38.732Z,7.85
2022-12-31T04:23:05.669Z,7.94
2022-12-31T04:25:32.825Z,7.95
2022-12-31T04:27:59.717Z,7.82
2022-12-31T04:30:26.650Z,7.81
2022-12-31T04:32:53.524Z,7.74
2022-12-31T04:35:20.728Z,7.75
2022-12-31T04:37:47.585Z,7.58
2022-12-31T04:40:14.538Z,7.57
2022-12-31T04:42:41.949Z,7.30
2022-12-31T04:45:10.329Z,7.29
2022-12-31T04:47:37.238Z,6.98
2022-12-31T04:50:04.931Z,6.43
2022-12-31T04:52:35.681Z,6.33
2022-12-31T04:55:06.125Z,6.33
2022-12-31T04:57:33.805Z,6.56
2022-12-31T05:00:00.724Z,7.05
2022-12-31T05:02:30.233Z,7.26
2022-12-31T05:04:57.247Z,7.43
2022-12-31T05:07:24.098Z,7.52
2022-12-31T05:09:51.599Z,7.61
2022-12-31T05:12:18.617Z,7.68
2022-12-31T05:14:45.532Z,7.48
2022-12-31T05:17:12.470Z,7.57
2022-12-31T05:19:39.368Z,7.39
2022-12-31T05:22:24.742Z,6.36
2022-12-31T05:24:52.459Z,5.95
2022-12-31T05:27:19.516Z,5.98
2022-12-31T05:29:46.485Z,6.12
2022-12-31T05:32:13.457Z,6.34
2022-12-31T05:34:40.338Z,6.73
2022-12-31T05:37:07.250Z,6.53
2022-12-31T05:39:36.348Z,6.66
2022-12-31T05:42:03.443Z,6.60
2022-12-31T05:44:30.366Z,6.53
2022-12-31T05:46:57.256Z,6.64
2022-12-31T05:49:24.278Z,6.88
2022-12-31T05:51:51.181Z,6.72
2022-12-31T05:54:18.153Z,6.51
2022-12-31T05:56:45.655Z,6.64
2022-12-31T05:59:12.632Z,6.75
2022-12-31T06:01:39.565Z,6.67
2022-12-31T06:04:06.561Z,6.55
2022-12-31T06:06:33.566Z,6.60
2022-12-31T06:09:00.548Z,6.78
2022-12-31T06:11:27.474Z,6.88
2022-12-31T06:13:54.483Z,7.00
2022-12-31T06:16:21.443Z,6.97
2022-12-31T06:18:51.059Z,7.07
2022-12-31T06:21:19.550Z,7.14
2022-12-31T06:23:46.806Z,7.37
2022-12-31T06:26:13.981Z,7.56
2022-12-31T06:28:41.105Z,7.66
2022-12-31T06:31:11.249Z,7.88
2022-12-31T06:33:38.513Z,8.13
2022-12-31T06:36:08.627Z,8.18
2022-12-31T06:38:38.250Z,8.00
2022-12-31T06:41:10.429Z,8.10
2022-12-31T06:43:38.895Z,8.18
2022-12-31T06:46:07.975Z,8.16
2022-12-31T06:48:35.269Z,8.49
2022-12-31T06:51:15.033Z,8.93
2022-12-31T06:53:45.135Z,8.52
2022-12-31T06:56:26.495Z,8.23
2022-12-31T06:58:58.170Z,8.41
2022-12-31T07:01:44.619Z,8.66
2022-12-31T07:04:33.428Z,8.72
2022-12-31T07:07:14.580Z,8.93
2022-12-31T07:09:53.440Z,9.35
2022-12-31T07:12:29.535Z,9.38
2022-12-31T07:15:05.608Z,9.51
2022-12-31T07:18:17.428Z,9.46
2022-12-31T07:20:44.767Z,9.57
2022-12-31T07:23:11.935Z,9.71
2022-12-31T07:25:44.672Z,9.94
2022-12-31T07:28:20.659Z,10.14
2022-12-31T07:31:25.794Z,10.26
2022-12-31T07:33:59.573Z,10.24
2022-12-31T07:36:50.527Z,10.11
2022-12-31T07:39:27.693Z,10.06
2022-12-31T07:42:19.545Z,9.99
2022-12-31T07:44:57.729Z,10.07
2022-12-31T07:47:27.746Z,10.08
2022-12-31T07:49:56.518Z,10.09
2022-12-31T07:52:24.094Z,10.16
2022-12-31T07:54:51.031Z,10.22
2022-12-31T07:57:20.731Z,10.36
2022-12-31T08:00:23.057Z,10.47
2022-12-31T08:03:23.746Z,10.47
2022-12-31T08:06:17.586Z,10.45
2022-12-31T08:09:03.257Z,10.57
2022-12-31T08:11:56.962Z,10.99
2022-12-31T08:14:26.943Z,11.33
2022-12-31T08:16:54.505Z,11.34
2022-12-31T08:19:27.392Z,11.34
2022-12-31T08:22:12.773Z,11.27
2022-12-31T08:24:58.407Z,11.27
2022-12-31T08:27:40.644Z,11.46
2022-12-31T08:30:09.294Z,11.62
2022-12-31T08:33:20.184Z,11.70
2022-12-31T08:36:19.372Z,11.58
2022-12-31T08:39:03.272Z,11.58
2022-12-31T08:41:43.173Z,11.83
2022-12-31T08:44:41.122Z,12.20
2022-12-31T08:47:26.450Z,12.30
2022-12-31T08:49:53.740Z,12.31
2022-12-31T08:52:25.052Z,12.31
2022-12-31T08:54:52.794Z,12.54
2022-12-31T08:57:46.258Z,12.99
2022-12-31T09:00:16.930Z,13.26
2022-12-31T09:02:55.654Z,13.17
2022-12-31T09:05:31.040Z,12.94
2022-12-31T09:08:00.876Z,12.94
2022-12-31T09:10:32.792Z,13.12
2022-12-31T09:13:23.880Z,13.39
2022-12-31T09:16:16.701Z,13.55
2022-12-31T09:18:45.013Z,13.26
2022-12-31T09:21:16.312Z,13.22
2022-12-31T09:23:43.748Z,13.31
2022-12-31T09:26:38.185Z,13.68
2022-12-31T09:29:27.471Z,13.95
2022-12-31T09:32:14.679Z,13.96
2022-12-31T09:34:50.596Z,13.90
2022-12-31T09:37:43.233Z,14.02
2022-12-31T09:40:22.383Z,14.06
2022-12-31T09:43:05.852Z,14.10
2022-12-31T10:17:41.363Z,13.71
2022-12-31T10:20:17.501Z,14.34
2022-12-31T10:22:44.326Z,14.76
2022-12-31T10:25:38.381Z,14.62
2022-12-31T10:28:29.615Z,14.59
2022-12-31T10:31:28.540Z,14.37
2022-12-31T10:34:24.608Z,14.50
2022-12-31T10:36:54.711Z,14.54
2022-12-31T10:39:38.409Z,14.59
2022-12-31T10:42:17.289Z,14.24
2022-12-31T10:45:32.426Z,14.46
2022-12-31T10:48:26.816Z,14.53
2022-12-31T10:50:59.423Z,14.75
2022-12-31T10:53:37.951Z,14.46
2022-12-31T10:56:35.401Z,14.15
2022-12-31T10:59:25.327Z,14.02
2022-12-31T11:01:55.010Z,14.46
2022-12-31T11:04:57.080Z,14.49
2022-12-31T11:07:54.849Z,14.48
2022-12-31T11:10:48.721Z,14.14
2022-12-31T11:13:40.695Z,14.46
2022-12-31T11:16:07.969Z,14.82
2022-12-31T11:18:52.129Z,15.19
2022-12-31T11:21:27.967Z,15.06
2022-12-31T11:24:12.980Z,14.67
2022-12-31T11:26:55.603Z,14.80
2022-12-31T11:29:59.918Z,14.90
2022-12-31T11:32:31.869Z,14.87
2022-12-31T11:35:13.642Z,14.78
2022-12-31T11:37:56.772Z,14.85
2022-12-31T11:40:32.993Z,14.17
2022-12-31T11:43:05.099Z,14.78
2022-12-31T11:45:54.203Z,14.87
2022-12-31T11:48:39.140Z,14.92
2022-12-31T11:51:50.190Z,14.36
2022-12-31T11:54:26.385Z,14.20
2022-12-31T11:57:11.517Z,14.10
2022-12-31T11:59:38.674Z,14.16
2022-12-31T12:02:29.206Z,14.02
2022-12-31T12:05:06.506Z,13.89
2022-12-31T12:07:37.743Z,13.83
2022-12-31T12:10:17.909Z,13.91
2022-12-31T12:12:44.950Z,14.00
2022-12-31T12:15:21.680Z,13.87
2022-12-31T12:17:57.605Z,13.74
2022-12-31T12:20:55.849Z,13.83
2022-12-31T12:23:25.605Z,14.05
2022-12-31T12:25:53.163Z,13.94
2022-12-31T12:28:21.534Z,13.85
2022-12-31T12:31:18.987Z,13.86
2022-12-31T12:33:47.883Z,13.62
2022-12-31T12:36:17.329Z,13.67
2022-12-31T12:38:45.070Z,13.77
2022-12-31T12:41:25.484Z,13.99
2022-12-31T12:44:14.409Z,14.02
2022-12-31T12:46:49.189Z,14.01
2022-12-31T12:49:21.796Z,14.22
2022-12-31T12:52:06.457Z,13.96
2022-12-31T12:54:51.868Z,14.01
2022-12-31T12:57:31.677Z,13.74
2022-12-31T13:00:21.476Z,13.81
2022-12-31T13:03:25.217Z,13.84
2022-12-31T13:06:22.671Z,13.91
2022-12-31T13:09:07.963Z,13.97
2022-12-31T13:11:50.753Z,13.89
2022-12-31T13:14:40.990Z,13.62
2022-12-31T13:17:33.965Z,13.49
2022-12-31T13:20:15.413Z,13.46
2022-12-31T13:22:52.510Z,13.44
2022-12-31T13:25:26.868Z,13.39
2022-12-31T13:27:58.599Z,13.36
2022-12-31T13:30:33.374Z,13.28
2022-12-31T13:33:20.730Z,13.19
2022-12-31T13:35:57.899Z,13.21
2022-12-31T13:38:30.654Z,13.18
2022-12-31T13:40:57.604Z,12.94
2022-12-31T13:43:39.606Z,12.84
2022-12-31T13:46:30.020Z,12.81
2022-12-31T13:49:01.723Z,12.82
2022-12-31T13:51:42.134Z,12.88
2022-12-31T13:54:45.796Z,12.88
2022-12-31T13:57:27.277Z,12.74
2022-12-31T14:00:02.422Z,12.55
2022-12-31T14:02:43.431Z,12.37
2022-12-31T14:05:32.527Z,12.37
2022-12-31T14:08:01.952Z,12.46
2022-12-31T14:10:45.177Z,12.29
2022-12-31T14:13:34.151Z,12.00
2022-12-31T14:16:23.449Z,11.86
2022-12-31T14:19:19.656Z,11.79
2022-12-31T14:21:58.760Z,12.03
2022-12-31T14:24:50.800Z,12.07
2022-12-31T14:27:33.256Z,11.86
2022-12-31T14:30:27.958Z,11.61
2022-12-31T14:32:57.859Z,11.30
2022-12-31T14:35:38.924Z,11.04
2022-12-31T14:38:18.532Z,10.85
2022-12-31T14:41:00.759Z,10.65
2022-12-31T14:43:45.490Z,10.27
2022-12-31T14:46:37.181Z,10.09
2022-12-31T14:49:22.390Z,9.99
2022-12-31T14:51:49.349Z,9.97
2022-12-31T14:54:42.906Z,10.04
2022-12-31T14:57:26.858Z,10.01
2022-12-31T15:00:38.344Z,9.93
2022-12-31T15:03:41.255Z,9.88
2022-12-31T15:06:23.726Z,9.52
2022-12-31T15:09:08.340Z,9.63
2022-12-31T15:11:38.159Z,9.91
2022-12-31T15:14:24.528Z,9.95
2022-12-31T15:16:57.860Z,9.93
2022-12-31T15:19:43.802Z,9.86
2022-12-31T15:22:35.012Z,9.80
2022-12-31T15:25:02.970Z,9.74
2022-12-31T15:27:42.427Z,9.79
2022-12-31T15:30:35.486Z,9.74
2022-12-31T15:33:08.835Z,9.86
2022-12-31T15:35:54.170Z,9.70
2022-12-31T15:38:38.630Z,9.28
2022-12-31T15:41:14.512Z,9.23
2022-12-31T15:43:51.106Z,9.32
2022-12-31T15:46:23.949Z,9.24
2022-12-31T15:49:04.244Z,8.93
2022-12-31T15:51:46.432Z,8.72
2022-12-31T15:54:38.498Z,8.98
2022-12-31T15:57:09.565Z,8.73
2022-12-31T15:59:38.353Z,8.48
2022-12-31T16:02:20.285Z,8.40
2022-12-31T16:04:48.711Z,8.39
2022-12-31T16:07:17.434Z,8.38
2022-12-31T16:09:51.104Z,8.19
2022-12-31T16:12:32.659Z,8.50
2022-12-31T16:15:01.028Z,8.30
2022-12-31T16:17:32.374Z,8.19
2022-12-31T16:20:00.873Z,7.90
2022-12-31T16:22:38.241Z,8.20
2022-12-31T16:27:55.197Z,8.22
2022-12-31T16:30:28.355Z,8.02
2022-12-31T16:33:00.159Z,7.74
2022-12-31T16:35:55.325Z,7.66
2022-12-31T16:38:23.241Z,7.70
2022-12-31T16:41:02.322Z,7.68
2022-12-31T16:43:40.821Z,7.69
2022-12-31T16:46:26.941Z,7.74
2022-12-31T16:49:07.534Z,7.67
2022-12-31T16:51:37.507Z,7.73
2022-12-31T16:54:04.883Z,7.57
2022-12-31T16:56:31.818Z,7.44
2022-12-31T16:59:06.514Z,7.29
2022-12-31T17:01:37.649Z,7.29
2022-12-31T17:04:11.684Z,7.85
2022-12-31T17:06:38.728Z,8.11
2022-12-31T17:09:14.563Z,7.76
2022-12-31T17:12:15.797Z,8.00
2022-12-31T17:14:51.374Z,7.69
2022-12-31T17:17:30.198Z,7.56
2022-12-31T17:20:00.415Z,7.89
2022-12-31T17:22:36.435Z,8.13
2022-12-31T17:25:05.662Z,8.01
2022-12-31T17:27:33.327Z,7.57
2022-12-31T17:30:22.138Z,7.40
2022-12-31T17:32:50.267Z,7.33
2022-12-31T17:35:42.084Z,7.37
2022-12-31T17:38:18.485Z,7.35
2022-12-31T17:40:52.007Z,7.53
2022-12-31T17:43:24.016Z,7.60
2022-12-31T17:45:52.909Z,7.98
2022-12-31T17:48:20.668Z,8.17
2022-12-31T17:50:53.498Z,8.28
2022-12-31T17:53:21.017Z,8.12
2022-12-31T17:55:51.225Z,7.59
2022-12-31T17:58:29.653Z,7.57
2022-12-31T18:00:58.722Z,7.39
2022-12-31T18:03:26.008Z,7.53
2022-12-31T18:05:53.248Z,7.35
2022-12-31T18:08:20.152Z,7.49
2022-12-31T18:10:47.364Z,7.63
2022-12-31T18:13:17.992Z,7.60
2022-12-31T18:15:45.405Z,7.72
2022-12-31T18:18:25.215Z,7.82
2022-12-31T18:21:05.341Z,7.99
2022-12-31T18:23:40.495Z,8.07
2022-12-31T18:26:09.970Z,8.06
2022-12-31T18:28:36.838Z,8.13
2022-12-31T18:31:03.852Z,8.27
2022-12-31T18:33:30.877Z,8.24
2022-12-31T18:36:08.685Z,8.29
2022-12-31T18:38:36.409Z,8.48
2022-12-31T18:41:04.385Z,8.03
2022-12-31T18:43:31.802Z,7.87
2022-12-31T18:45:59.154Z,7.82
2022-12-31T18:48:26.401Z,7.76
2022-12-31T18:50:53.769Z,7.47
2022-12-31T18:53:23.496Z,7.29
2022-12-31T18:55:51.965Z,7.28
2022-12-31T18:58:19.189Z,7.10
2022-12-31T19:00:48.033Z,6.94
2022-12-31T19:03:21.983Z,7.27
2022-12-31T19:05:51.128Z,7.08
2022-12-31T19:08:19.774Z,7.17
2022-12-31T19:10:48.035Z,7.21
2022-12-31T19:13:18.554Z,7.18
2022-12-31T19:15:51.471Z,6.97
2022-12-31T19:18:18.745Z,6.88
2022-12-31T19:20:46.207Z,6.92
2022-12-31T19:23:19.117Z,7.08
2022-12-31T19:25:47.744Z,7.07
2022-12-31T19:28:23.077Z,7.31
2022-12-31T19:30:50.640Z,7.41
2022-12-31T19:33:17.602Z,7.42
2022-12-31T19:35:45.418Z,7.39
2022-12-31T19:38:23.768Z,7.37
2022-12-31T19:40:52.887Z,7.26
2022-12-31T19:43:22.162Z,7.60
2022-12-31T19:45:50.436Z,7.75
2022-12-31T19:48:27.210Z,7.90
2022-12-31T19:50:59.220Z,7.96
2022-12-31T19:53:27.335Z,8.17
2022-12-31T19:55:54.753Z,7.77
2022-12-31T19:58:26.191Z,7.49
2022-12-31T20:01:01.253Z,7.25
2022-12-31T20:03:29.606Z,7.02
2022-12-31T20:06:07.958Z,6.72
2022-12-31T20:08:36.716Z,6.44
2022-12-31T20:11:15.521Z,6.27
2022-12-31T20:13:43.015Z,6.44
2022-12-31T20:16:13.189Z,6.44
2022-12-31T20:18:41.819Z,6.61
2022-12-31T20:21:14.633Z,6.75
2022-12-31T20:23:41.679Z,6.57
2022-12-31T20:26:09.276Z,6.69
2022-12-31T20:28:37.589Z,6.73
2022-12-31T20:31:09.674Z,6.74
2022-12-31T20:33:36.768Z,6.66
2022-12-31T20:36:09.542Z,6.92
2022-12-31T20:38:36.516Z,6.87
2022-12-31T20:41:09.516Z,7.28
2022-12-31T20:43:37.329Z,7.85
2022-12-31T20:46:15.816Z,8.18
2022-12-31T20:48:44.930Z,8.37
2022-12-31T20:51:13.267Z,8.51
2022-12-31T20:53:40.325Z,8.52
2022-12-31T20:56:09.787Z,8.85
2022-12-31T20:58:36.935Z,8.66
2022-12-31T21:01:07.448Z,8.95
2022-12-31T21:04:04.998Z,8.84
2022-12-31T21:06:26.744Z,9.09
2022-12-31T21:08:55.715Z,9.07
2022-12-31T21:11:41.705Z,8.49
2022-12-31T21:14:08.873Z,8.37
2022-12-31T21:16:36.224Z,8.65
2022-12-31T21:19:03.347Z,8.77
2022-12-31T21:21:30.281Z,8.79
2022-12-31T21:23:57.259Z,8.67
2022-12-31T21:26:24.154Z,8.39
2022-12-31T21:28:51.166Z,8.36
2022-12-31T21:31:18.092Z,8.19
2022-12-31T21:33:46.959Z,7.85
2022-12-31T21:36:14.452Z,8.17
2022-12-31T21:38:42.148Z,8.28
2022-12-31T21:41:33.216Z,8.64
2022-12-31T21:44:01.162Z,7.82
2022-12-31T21:46:28.267Z,7.43
2022-12-31T21:48:59.975Z,7.27
2022-12-31T21:51:28.083Z,7.19
2022-12-31T21:53:55.244Z,7.07
2022-12-31T21:56:22.947Z,7.03
2022-12-31T21:59:16.911Z,6.99
2022-12-31T22:02:02.686Z,6.91
2022-12-31T22:07:17.044Z,6.70
2022-12-31T22:09:43.904Z,6.60
2022-12-31T22:12:10.765Z,6.78
2022-12-31T22:14:37.710Z,6.84
2022-12-31T22:17:04.702Z,6.77
2022-12-31T22:19:33.736Z,6.15
2022-12-31T22:22:10.646Z,5.95
2022-12-31T22:24:37.537Z,5.95
2022-12-31T22:27:29.251Z,5.73
2022-12-31T22:29:51.384Z,5.66
2022-12-31T22:32:18.268Z,5.57
2022-12-31T22:34:45.246Z,5.80
2022-12-31T22:37:35.748Z,6.04
2022-12-31T22:39:59.099Z,6.42
2022-12-31T22:42:26.077Z,6.26
2022-12-31T22:44:53.173Z,6.09
2022-12-31T22:47:20.074Z,6.06
2022-12-31T22:49:46.981Z,5.84
2022-12-31T22:52:13.838Z,6.20
2022-12-31T22:54:40.750Z,6.63
2022-12-31T22:57:07.744Z,6.36
2022-12-31T22:59:34.734Z,6.56
2022-12-31T23:02:01.771Z,6.66
2022-12-31T23:04:28.790Z,6.80
2022-12-31T23:06:55.876Z,6.71
2022-12-31T23:09:41.479Z,6.88
2022-12-31T23:12:09.293Z,6.87
2022-12-31T23:14:55.086Z,6.77
2022-12-31T23:17:45.180Z,6.63
2022-12-31T23:20:35.227Z,6.75
2022-12-31T23:23:11.598Z,6.98
2022-12-31T23:25:42.935Z,7.23
2022-12-31T23:28:13.685Z,7.08
2022-12-31T23:30:41.403Z,6.59
2022-12-31T23:33:14.767Z,7.06
2022-12-31T23:35:41.734Z,7.49
2022-12-31T23:38:08.750Z,7.74
2022-12-31T23:40:35.804Z,8.05
2022-12-31T23:43:04.483Z,8.20
2022-12-31T23:45:33.469Z,7.98
2022-12-31T23:48:01.114Z,7.06
2022-12-31T23:50:28.325Z,6.95
2022-12-31T23:52:55.232Z,6.89
2022-12-31T23:55:22.212Z,7.42
2022-12-31T23:57:49.110Z,7.03
